sensor_id;sensor_type;location;lat;lon;timestamp;pressure;altitude;pressure_sealevel;temperature;humidity
39265;BME280;42646;51.910;7.724;2022-10-31T00:01:22;101429.91;;;13.06;100.00
39265;BME280;42646;51.910;7.724;2022-10-31T00:03:52;101435.94;;;13.08;100.00
39265;BME280;42646;51.910;7.724;2022-10-31T00:06:20;101437.91;;;13.06;100.00
39265;BME280;42646;51.910;7.724;2022-10-31T00:08:51;101436.22;;;13.05;100.00
39265;BME280;42646;51.910;7.724;2022-10-31T00:11:20;101442.56;;;13.04;100.00
39265;BME280;42646;51.910;7.724;2022-10-31T00:13:47;101440.97;;;13.02;100.00
39265;BME280;42646;51.910;7.724;2022-10-31T00:16:16;101438.59;;;12.99;100.00
39265;BME280;42646;51.910;7.724;2022-10-31T00:18:47;101445.03;;;12.96;100.00
39265;BME280;42646;51.910;7.724;2022-10-31T00:21:16;101448.84;;;12.94;100.00
39265;BME280;42646;51.910;7.724;2022-10-31T00:23:44;101457.94;;;12.91;100.00
39265;BME280;42646;51.910;7.724;2022-10-31T00:26:12;101451.06;;;12.89;100.00
39265;BME280;42646;51.910;7.724;2022-10-31T00:28:40;101455.66;;;12.87;100.00
39265;BME280;42646;51.910;7.724;2022-10-31T00:31:10;101453.13;;;12.85;100.00
39265;BME280;42646;51.910;7.724;2022-10-31T00:33:39;101451.44;;;12.84;100.00
39265;BME280;42646;51.910;7.724;2022-10-31T00:36:11;101449.91;;;12.81;100.00
39265;BME280;42646;51.910;7.724;2022-10-31T00:38:41;101456.94;;;12.82;100.00
39265;BME280;42646;51.910;7.724;2022-10-31T00:41:09;101457.63;;;12.84;100.00
39265;BME280;42646;51.910;7.724;2022-10-31T00:43:40;101462.13;;;12.84;100.00
39265;BME280;42646;51.910;7.724;2022-10-31T00:46:08;101456.78;;;12.84;100.00
39265;BME280;42646;51.910;7.724;2022-10-31T00:48:36;101459.47;;;12.84;100.00
39265;BME280;42646;51.910;7.724;2022-10-31T00:51:04;101453.41;;;12.82;100.00
39265;BME280;42646;51.910;7.724;2022-10-31T00:53:31;101451.59;;;12.82;100.00
39265;BME280;42646;51.910;7.724;2022-10-31T00:56:01;101460.69;;;12.80;100.00
39265;BME280;42646;51.910;7.724;2022-10-31T00:58:28;101456.47;;;12.77;100.00
39265;BME280;42646;51.910;7.724;2022-10-31T01:00:56;101459.41;;;12.74;100.00
39265;BME280;42646;51.910;7.724;2022-10-31T01:03:26;101457.00;;;12.71;100.00
39265;BME280;42646;51.910;7.724;2022-10-31T01:05:59;101458.00;;;12.70;100.00
39265;BME280;42646;51.910;7.724;2022-10-31T01:08:27;101457.25;;;12.68;100.00
39265;BME280;42646;51.910;7.724;2022-10-31T01:11:04;101459.22;;;12.66;100.00
39265;BME280;42646;51.910;7.724;2022-10-31T01:13:33;101461.19;;;12.64;100.00
39265;BME280;42646;51.910;7.724;2022-10-31T01:16:03;101455.97;;;12.63;100.00
39265;BME280;42646;51.910;7.724;2022-10-31T01:18:32;101459.63;;;12.62;100.00
39265;BME280;42646;51.910;7.724;2022-10-31T01:21:02;101454.69;;;12.57;100.00
39265;BME280;42646;51.910;7.724;2022-10-31T01:23:30;101449.47;;;12.55;100.00
39265;BME280;42646;51.910;7.724;2022-10-31T01:26:00;101451.44;;;12.53;100.00
39265;BME280;42646;51.910;7.724;2022-10-31T01:28:29;101460.44;;;12.52;100.00
39265;BME280;42646;51.910;7.724;2022-10-31T01:31:00;101464.06;;;12.51;100.00
39265;BME280;42646;51.910;7.724;2022-10-31T01:33:27;101465.16;;;12.49;100.00
39265;BME280;42646;51.910;7.724;2022-10-31T01:35:55;101463.47;;;12.48;100.00
39265;BME280;42646;51.910;7.724;2022-10-31T01:38:23;101469.06;;;12.45;100.00
39265;BME280;42646;51.910;7.724;2022-10-31T01:40:51;101462.88;;;12.44;100.00
39265;BME280;42646;51.910;7.724;2022-10-31T01:43:19;101462.19;;;12.42;100.00
39265;BME280;42646;51.910;7.724;2022-10-31T01:45:54;101464.00;;;12.42;100.00
39265;BME280;42646;51.910;7.724;2022-10-31T01:48:25;101469.34;;;12.42;100.00
39265;BME280;42646;51.910;7.724;2022-10-31T01:50:57;101461.47;;;12.40;100.00
39265;BME280;42646;51.910;7.724;2022-10-31T01:53:26;101466.06;;;12.38;100.00
39265;BME280;42646;51.910;7.724;2022-10-31T01:55:53;101454.69;;;12.36;100.00
39265;BME280;42646;51.910;7.724;2022-10-31T01:58:24;101454.94;;;12.33;100.00
39265;BME280;42646;51.910;7.724;2022-10-31T02:00:57;101444.41;;;12.32;100.00
39265;BME280;42646;51.910;7.724;2022-10-31T02:03:32;101454.22;;;12.31;100.00
39265;BME280;42646;51.910;7.724;2022-10-31T02:06:00;101441.88;;;12.30;100.00
39265;BME280;42646;51.910;7.724;2022-10-31T02:08:29;101442.00;;;12.28;100.00
39265;BME280;42646;51.910;7.724;2022-10-31T02:10:58;101457.28;;;12.26;100.00
39265;BME280;42646;51.910;7.724;2022-10-31T02:13:27;101460.94;;;12.25;100.00
39265;BME280;42646;51.910;7.724;2022-10-31T02:15:58;101473.56;;;12.23;100.00
39265;BME280;42646;51.910;7.724;2022-10-31T02:18:28;101473.69;;;12.22;100.00
39265;BME280;42646;51.910;7.724;2022-10-31T02:21:07;101475.50;;;12.21;100.00
39265;BME280;42646;51.910;7.724;2022-10-31T02:23:52;101473.69;;;12.22;100.00
39265;BME280;42646;51.910;7.724;2022-10-31T02:26:45;101481.81;;;12.20;100.00
39265;BME280;42646;51.910;7.724;2022-10-31T02:32:20;101473.63;;;12.12;100.00
39265;BME280;42646;51.910;7.724;2022-10-31T02:34:57;101472.06;;;12.10;100.00
39265;BME280;42646;51.910;7.724;2022-10-31T02:37:33;101487.19;;;12.09;100.00
39265;BME280;42646;51.910;7.724;2022-10-31T02:40:07;101491.69;;;12.09;100.00
39265;BME280;42646;51.910;7.724;2022-10-31T02:43:00;101478.47;;;12.07;100.00
39265;BME280;42646;51.910;7.724;2022-10-31T02:45:33;101477.63;;;12.07;100.00
39265;BME280;42646;51.910;7.724;2022-10-31T02:48:06;101468.66;;;12.08;100.00
39265;BME280;42646;51.910;7.724;2022-10-31T02:50:39;101461.78;;;12.05;100.00
39265;BME280;42646;51.910;7.724;2022-10-31T02:53:09;101463.69;;;12.03;100.00
39265;BME280;42646;51.910;7.724;2022-10-31T02:55:51;101457.53;;;12.02;100.00
39265;BME280;42646;51.910;7.724;2022-10-31T02:58:24;101448.81;;;12.00;100.00
39265;BME280;42646;51.910;7.724;2022-10-31T03:01:10;101448.22;;;11.97;100.00
39265;BME280;42646;51.910;7.724;2022-10-31T03:03:53;101450.03;;;11.96;100.00
39265;BME280;42646;51.910;7.724;2022-10-31T03:06:30;101444.13;;;11.93;100.00
39265;BME280;42646;51.910;7.724;2022-10-31T03:09:05;101443.38;;;11.91;100.00
39265;BME280;42646;51.910;7.724;2022-10-31T03:11:41;101447.16;;;11.88;100.00
39265;BME280;42646;51.910;7.724;2022-10-31T03:14:12;101457.13;;;11.86;100.00
39265;BME280;42646;51.910;7.724;2022-10-31T03:16:48;101467.19;;;11.83;100.00
39265;BME280;42646;51.910;7.724;2022-10-31T03:19:23;101470.94;;;11.80;100.00
39265;BME280;42646;51.910;7.724;2022-10-31T03:21:55;101472.00;;;11.77;100.00
39265;BME280;42646;51.910;7.724;2022-10-31T03:24:28;101471.31;;;11.75;100.00
39265;BME280;42646;51.910;7.724;2022-10-31T03:26:59;101477.72;;;11.73;100.00
39265;BME280;42646;51.910;7.724;2022-10-31T03:29:33;101476.16;;;11.70;100.00
39265;BME280;42646;51.910;7.724;2022-10-31T03:32:06;101473.72;;;11.67;100.00
39265;BME280;42646;51.910;7.724;2022-10-31T03:34:37;101474.97;;;11.63;100.00
39265;BME280;42646;51.910;7.724;2022-10-31T03:37:10;101476.41;;;11.56;100.00
39265;BME280;42646;51.910;7.724;2022-10-31T03:39:41;101468.69;;;11.53;100.00
39265;BME280;42646;51.910;7.724;2022-10-31T03:42:13;101470.88;;;11.48;100.00
39265;BME280;42646;51.910;7.724;2022-10-31T03:44:44;101473.81;;;11.45;100.00
39265;BME280;42646;51.910;7.724;2022-10-31T03:47:14;101472.22;;;11.42;100.00
39265;BME280;42646;51.910;7.724;2022-10-31T03:49:43;101464.59;;;11.38;100.00
39265;BME280;42646;51.910;7.724;2022-10-31T03:52:14;101469.34;;;11.34;100.00
39265;BME280;42646;51.910;7.724;2022-10-31T03:54:52;101470.41;;;11.32;100.00
39265;BME280;42646;51.910;7.724;2022-10-31T03:57:26;101472.50;;;11.28;100.00
39265;BME280;42646;51.910;7.724;2022-10-31T03:59:59;101478.91;;;11.26;100.00
39265;BME280;42646;51.910;7.724;2022-10-31T04:02:32;101480.84;;;11.23;100.00
39265;BME280;42646;51.910;7.724;2022-10-31T04:05:02;101474.81;;;11.21;100.00
39265;BME280;42646;51.910;7.724;2022-10-31T04:07:34;101469.84;;;11.17;100.00
39265;BME280;42646;51.910;7.724;2022-10-31T04:10:10;101473.47;;;11.16;100.00
39265;BME280;42646;51.910;7.724;2022-10-31T04:12:43;101476.22;;;11.14;100.00
39265;BME280;42646;51.910;7.724;2022-10-31T04:15:23;101475.66;;;11.11;100.00
39265;BME280;42646;51.910;7.724;2022-10-31T04:17:55;101473.22;;;11.08;100.00
39265;BME280;42646;51.910;7.724;2022-10-31T04:20:32;101468.16;;;11.05;100.00
39265;BME280;42646;51.910;7.724;2022-10-31T04:23:00;101466.69;;;11.01;100.00
39265;BME280;42646;51.910;7.724;2022-10-31T04:25:28;101464.16;;;10.99;100.00
39265;BME280;42646;51.910;7.724;2022-10-31T04:27:57;101472.38;;;10.96;100.00
39265;BME280;42646;51.910;7.724;2022-10-31T04:30:26;101464.63;;;10.93;100.00
39265;BME280;42646;51.910;7.724;2022-10-31T04:32:54;101474.66;;;10.89;100.00
39265;BME280;42646;51.910;7.724;2022-10-31T04:35:21;101472.13;;;10.88;100.00
39265;BME280;42646;51.910;7.724;2022-10-31T04:37:53;101477.69;;;10.85;100.00
39265;BME280;42646;51.910;7.724;2022-10-31T04:40:20;101469.94;;;10.82;100.00
39265;BME280;42646;51.910;7.724;2022-10-31T04:42:53;101471.06;;;10.79;100.00
39265;BME280;42646;51.910;7.724;2022-10-31T04:45:21;101463.28;;;10.76;100.00
39265;BME280;42646;51.910;7.724;2022-10-31T04:47:51;101468.97;;;10.72;100.00
39265;BME280;42646;51.910;7.724;2022-10-31T04:50:19;101465.72;;;10.68;100.00
39265;BME280;42646;51.910;7.724;2022-10-31T04:52:47;101465.09;;;10.64;100.00
39265;BME280;42646;51.910;7.724;2022-10-31T04:55:20;101463.53;;;10.62;100.00
39265;BME280;42646;51.910;7.724;2022-10-31T04:58:06;101462.06;;;10.58;100.00
39265;BME280;42646;51.910;7.724;2022-10-31T05:00:34;101467.50;;;10.56;100.00
39265;BME280;42646;51.910;7.724;2022-10-31T05:03:01;101470.38;;;10.53;100.00
39265;BME280;42646;51.910;7.724;2022-10-31T05:05:31;101470.53;;;10.52;100.00
39265;BME280;42646;51.910;7.724;2022-10-31T05:08:02;101471.59;;;10.49;100.00
39265;BME280;42646;51.910;7.724;2022-10-31T05:10:32;101463.84;;;10.46;100.00
39265;BME280;42646;51.910;7.724;2022-10-31T05:13:02;101462.28;;;10.43;100.00
39265;BME280;42646;51.910;7.724;2022-10-31T05:15:43;101469.53;;;10.41;100.00
39265;BME280;42646;51.910;7.724;2022-10-31T05:18:23;101466.97;;;10.40;100.00
39265;BME280;42646;51.910;7.724;2022-10-31T05:21:11;101468.03;;;10.37;100.00
39265;BME280;42646;51.910;7.724;2022-10-31T05:23:49;101461.28;;;10.33;100.00
39265;BME280;42646;51.910;7.724;2022-10-31T05:26:18;101450.16;;;10.28;100.00
39265;BME280;42646;51.910;7.724;2022-10-31T05:28:46;101446.88;;;10.25;100.00
39265;BME280;42646;51.910;7.724;2022-10-31T05:31:15;101455.06;;;10.22;100.00
39265;BME280;42646;51.910;7.724;2022-10-31T05:33:42;101461.56;;;10.17;100.00
39265;BME280;42646;51.910;7.724;2022-10-31T05:36:19;101443.28;;;10.13;100.00
39265;BME280;42646;51.910;7.724;2022-10-31T05:38:52;101443.53;;;10.10;100.00
39265;BME280;42646;51.910;7.724;2022-10-31T05:41:26;101453.53;;;10.06;100.00
39265;BME280;42646;51.910;7.724;2022-10-31T05:44:03;101449.31;;;10.04;100.00
39265;BME280;42646;51.910;7.724;2022-10-31T05:46:38;101457.50;;;10.01;100.00
39265;BME280;42646;51.910;7.724;2022-10-31T05:49:32;101447.13;;;9.98;100.00
39265;BME280;42646;51.910;7.724;2022-10-31T05:52:08;101442.88;;;9.95;100.00
39265;BME280;42646;51.910;7.724;2022-10-31T05:54:47;101445.66;;;9.94;100.00
39265;BME280;42646;51.910;7.724;2022-10-31T05:57:16;101452.06;;;9.91;100.00
39265;BME280;42646;51.910;7.724;2022-10-31T05:59:44;101450.34;;;9.90;100.00
39265;BME280;42646;51.910;7.724;2022-10-31T06:02:19;101442.47;;;9.88;100.00
39265;BME280;42646;51.910;7.724;2022-10-31T06:05:25;101440.06;;;9.85;100.00
39265;BME280;42646;51.910;7.724;2022-10-31T06:07:53;101448.13;;;9.84;100.00
39265;BME280;42646;51.910;7.724;2022-10-31T06:10:22;101454.53;;;9.81;100.00
39265;BME280;42646;51.910;7.724;2022-10-31T06:12:54;101449.34;;;9.80;100.00
39265;BME280;42646;51.910;7.724;2022-10-31T06:15:32;101454.88;;;9.77;100.00
39265;BME280;42646;51.910;7.724;2022-10-31T06:18:00;101453.19;;;9.76;100.00
39265;BME280;42646;51.910;7.724;2022-10-31T06:20:33;101449.78;;;9.74;100.00
39265;BME280;42646;51.910;7.724;2022-10-31T06:23:03;101444.56;;;9.72;100.00
39265;BME280;42646;51.910;7.724;2022-10-31T06:25:32;101454.34;;;9.72;100.00
39265;BME280;42646;51.910;7.724;2022-10-31T06:28:01;101451.09;;;9.68;100.00
39265;BME280;42646;51.910;7.724;2022-10-31T06:30:43;101457.47;;;9.66;100.00
39265;BME280;42646;51.910;7.724;2022-10-31T06:33:11;101463.75;;;9.64;100.00
39265;BME280;42646;51.910;7.724;2022-10-31T06:35:45;101460.38;;;9.62;100.00
39265;BME280;42646;51.910;7.724;2022-10-31T06:38:14;101456.94;;;9.60;100.00
39265;BME280;42646;51.910;7.724;2022-10-31T06:40:42;101462.38;;;9.59;100.00
39265;BME280;42646;51.910;7.724;2022-10-31T06:43:18;101459.84;;;9.57;100.00
39265;BME280;42646;51.910;7.724;2022-10-31T06:45:47;101467.81;;;9.57;100.00
39265;BME280;42646;51.910;7.724;2022-10-31T06:48:22;101466.13;;;9.56;100.00
39265;BME280;42646;51.910;7.724;2022-10-31T06:51:09;101463.47;;;9.56;100.00
39265;BME280;42646;51.910;7.724;2022-10-31T06:53:37;101466.13;;;9.56;100.00
39265;BME280;42646;51.910;7.724;2022-10-31T06:56:07;101463.34;;;9.58;100.00
39265;BME280;42646;51.910;7.724;2022-10-31T06:58:42;101475.47;;;9.62;100.00
39265;BME280;42646;51.910;7.724;2022-10-31T07:01:12;101468.09;;;9.66;100.00
39265;BME280;42646;51.910;7.724;2022-10-31T07:03:39;101473.91;;;9.71;100.00
39265;BME280;42646;51.910;7.724;2022-10-31T07:06:07;101474.44;;;9.76;100.00
39265;BME280;42646;51.910;7.724;2022-10-31T07:08:35;101461.78;;;9.79;100.00
39265;BME280;42646;51.910;7.724;2022-10-31T07:11:03;101465.16;;;9.81;100.00
39265;BME280;42646;51.910;7.724;2022-10-31T07:13:31;101471.97;;;9.85;100.00
39265;BME280;42646;51.910;7.724;2022-10-31T07:16:07;101470.03;;;9.87;100.00
39265;BME280;42646;51.910;7.724;2022-10-31T07:18:37;101475.97;;;9.91;100.00
39265;BME280;42646;51.910;7.724;2022-10-31T07:21:05;101474.88;;;9.94;100.00
39265;BME280;42646;51.910;7.724;2022-10-31T07:23:33;101477.22;;;9.98;100.00
39265;BME280;42646;51.910;7.724;2022-10-31T07:26:20;101476.88;;;10.03;100.00
39265;BME280;42646;51.910;7.724;2022-10-31T07:28:48;101480.88;;;10.08;100.00
39265;BME280;42646;51.910;7.724;2022-10-31T07:31:20;101474.34;;;10.12;100.00
39265;BME280;42646;51.910;7.724;2022-10-31T07:33:50;101475.69;;;10.18;100.00
39265;BME280;42646;51.910;7.724;2022-10-31T07:36:26;101471.00;;;10.22;100.00
39265;BME280;42646;51.910;7.724;2022-10-31T07:39:00;101480.38;;;10.27;100.00
39265;BME280;42646;51.910;7.724;2022-10-31T07:41:30;101486.91;;;10.34;100.00
39265;BME280;42646;51.910;7.724;2022-10-31T07:43:57;101489.09;;;10.40;100.00
39265;BME280;42646;51.910;7.724;2022-10-31T07:46:46;101485.00;;;10.48;100.00
39265;BME280;42646;51.910;7.724;2022-10-31T07:49:35;101479.00;;;10.57;100.00
39265;BME280;42646;51.910;7.724;2022-10-31T07:52:35;101489.66;;;10.68;100.00
39265;BME280;42646;51.910;7.724;2022-10-31T07:55:21;101481.78;;;10.78;100.00
39265;BME280;42646;51.910;7.724;2022-10-31T07:57:55;101492.72;;;10.86;100.00
39265;BME280;42646;51.910;7.724;2022-10-31T08:00:23;101494.91;;;10.92;100.00
39265;BME280;42646;51.910;7.724;2022-10-31T08:02:58;101491.63;;;11.00;100.00
39265;BME280;42646;51.910;7.724;2022-10-31T08:05:46;101479.50;;;11.07;100.00
39265;BME280;42646;51.910;7.724;2022-10-31T08:08:49;101476.13;;;11.16;100.00
39265;BME280;42646;51.910;7.724;2022-10-31T08:11:18;101477.19;;;11.24;100.00
39265;BME280;42646;51.910;7.724;2022-10-31T08:13:46;101472.22;;;11.31;100.00
39265;BME280;42646;51.910;7.724;2022-10-31T08:16:15;101470.66;;;11.40;100.00
39265;BME280;42646;51.910;7.724;2022-10-31T08:18:52;101469.06;;;11.48;100.00
39265;BME280;42646;51.910;7.724;2022-10-31T08:21:22;101469.31;;;11.57;100.00
39265;BME280;42646;51.910;7.724;2022-10-31T08:23:50;101463.34;;;11.64;100.00
39265;BME280;42646;51.910;7.724;2022-10-31T08:26:20;101462.56;;;11.73;100.00
39265;BME280;42646;51.910;7.724;2022-10-31T08:28:50;101451.31;;;11.81;100.00
39265;BME280;42646;51.910;7.724;2022-10-31T08:31:20;101452.38;;;11.90;100.00
39265;BME280;42646;51.910;7.724;2022-10-31T08:33:47;101452.59;;;11.98;100.00
39265;BME280;42646;51.910;7.724;2022-10-31T08:36:19;101456.53;;;12.03;100.00
39265;BME280;42646;51.910;7.724;2022-10-31T08:38:47;101448.75;;;12.12;100.00
39265;BME280;42646;51.910;7.724;2022-10-31T08:41:16;101443.38;;;12.23;100.00
39265;BME280;42646;51.910;7.724;2022-10-31T08:43:44;101442.19;;;12.37;100.00
39265;BME280;42646;51.910;7.724;2022-10-31T08:46:11;101439.31;;;12.49;100.00
39265;BME280;42646;51.910;7.724;2022-10-31T08:48:42;101438.78;;;12.55;100.00
39265;BME280;42646;51.910;7.724;2022-10-31T08:51:10;101447.97;;;12.63;100.00
39265;BME280;42646;51.910;7.724;2022-10-31T08:53:39;101443.91;;;12.68;100.00
39265;BME280;42646;51.910;7.724;2022-10-31T08:56:19;101441.44;;;12.76;100.00
39265;BME280;42646;51.910;7.724;2022-10-31T08:58:46;101451.59;;;12.82;100.00
39265;BME280;42646;51.910;7.724;2022-10-31T09:01:14;101452.16;;;12.86;100.00
39265;BME280;42646;51.910;7.724;2022-10-31T09:03:42;101450.66;;;12.93;100.00
39265;BME280;42646;51.910;7.724;2022-10-31T09:06:11;101446.63;;;12.99;100.00
39265;BME280;42646;51.910;7.724;2022-10-31T09:08:40;101450.56;;;13.04;100.00
39265;BME280;42646;51.910;7.724;2022-10-31T09:11:07;101458.88;;;13.11;100.00
39265;BME280;42646;51.910;7.724;2022-10-31T09:14:14;101442.31;;;13.17;100.00
39265;BME280;42646;51.910;7.724;2022-10-31T09:17:17;101449.81;;;13.23;100.00
39265;BME280;42646;51.910;7.724;2022-10-31T09:20:05;101443.09;;;13.29;100.00
39265;BME280;42646;51.910;7.724;2022-10-31T09:22:34;101444.38;;;13.34;100.00
39265;BME280;42646;51.910;7.724;2022-10-31T09:25:03;101440.31;;;13.40;100.00
39265;BME280;42646;51.910;7.724;2022-10-31T09:27:31;101445.78;;;13.48;100.00
39265;BME280;42646;51.910;7.724;2022-10-31T09:30:00;101443.56;;;13.53;100.00
39265;BME280;42646;51.910;7.724;2022-10-31T09:32:28;101446.66;;;13.58;100.00
39265;BME280;42646;51.910;7.724;2022-10-31T09:34:56;101447.22;;;13.62;100.00
39265;BME280;42646;51.910;7.724;2022-10-31T09:37:23;101441.59;;;13.65;100.00
39265;BME280;42646;51.910;7.724;2022-10-31T09:39:51;101428.66;;;13.70;100.00
39265;BME280;42646;51.910;7.724;2022-10-31T09:42:43;101426.38;;;13.75;100.00
39265;BME280;42646;51.910;7.724;2022-10-31T09:45:25;101425.97;;;13.80;100.00
39265;BME280;42646;51.910;7.724;2022-10-31T09:48:11;101427.97;;;13.87;100.00
39265;BME280;42646;51.910;7.724;2022-10-31T09:51:04;101424.72;;;13.94;100.00
39265;BME280;42646;51.910;7.724;2022-10-31T09:53:44;101416.25;;;13.98;100.00
39265;BME280;42646;51.910;7.724;2022-10-31T09:56:18;101412.19;;;14.04;100.00
39265;BME280;42646;51.910;7.724;2022-10-31T09:58:51;101418.53;;;14.12;100.00
39265;BME280;42646;51.910;7.724;2022-10-31T10:01:40;101414.97;;;14.22;100.00
39265;BME280;42646;51.910;7.724;2022-10-31T10:04:21;101406.09;;;14.31;100.00
39265;BME280;42646;51.910;7.724;2022-10-31T10:07:11;101409.88;;;14.38;100.00
39265;BME280;42646;51.910;7.724;2022-10-31T10:10:04;101407.22;;;14.48;100.00
39265;BME280;42646;51.910;7.724;2022-10-31T10:13:27;101403.38;;;14.60;100.00
39265;BME280;42646;51.910;7.724;2022-10-31T10:16:16;101399.69;;;14.71;100.00
39265;BME280;42646;51.910;7.724;2022-10-31T10:18:59;101402.44;;;14.79;100.00
39265;BME280;42646;51.910;7.724;2022-10-31T10:21:38;101394.38;;;14.88;100.00
39265;BME280;42646;51.910;7.724;2022-10-31T10:24:32;101390.34;;;15.02;100.00
39265;BME280;42646;51.910;7.724;2022-10-31T10:27:10;101392.84;;;15.13;100.00
39265;BME280;42646;51.910;7.724;2022-10-31T10:29:47;101388.25;;;15.23;100.00
39265;BME280;42646;51.910;7.724;2022-10-31T10:32:22;101374.78;;;15.33;100.00
39265;BME280;42646;51.910;7.724;2022-10-31T10:34:53;101372.03;;;15.43;100.00
39265;BME280;42646;51.910;7.724;2022-10-31T10:37:28;101372.94;;;15.52;100.00
39265;BME280;42646;51.910;7.724;2022-10-31T10:40:05;101367.53;;;15.61;100.00
39265;BME280;42646;51.910;7.724;2022-10-31T10:42:35;101368.47;;;15.70;100.00
39265;BME280;42646;51.910;7.724;2022-10-31T10:45:21;101361.47;;;15.77;100.00
39265;BME280;42646;51.910;7.724;2022-10-31T10:48:14;101359.03;;;15.84;100.00
39265;BME280;42646;51.910;7.724;2022-10-31T10:50:47;101364.28;;;15.93;100.00
39265;BME280;42646;51.910;7.724;2022-10-31T10:53:37;101359.00;;;16.01;100.00
39265;BME280;42646;51.910;7.724;2022-10-31T10:56:17;101355.69;;;16.08;100.00
39265;BME280;42646;51.910;7.724;2022-10-31T10:58:48;101355.06;;;16.14;100.00
39265;BME280;42646;51.910;7.724;2022-10-31T11:01:15;101350.75;;;16.21;100.00
39265;BME280;42646;51.910;7.724;2022-10-31T11:03:44;101347.44;;;16.27;100.00
39265;BME280;42646;51.910;7.724;2022-10-31T11:06:19;101344.28;;;16.32;100.00
39265;BME280;42646;51.910;7.724;2022-10-31T11:08:51;101345.16;;;16.40;100.00
39265;BME280;42646;51.910;7.724;2022-10-31T11:11:25;101336.44;;;16.46;100.00
39265;BME280;42646;51.910;7.724;2022-10-31T11:13:58;101327.75;;;16.52;100.00
39265;BME280;42646;51.910;7.724;2022-10-31T11:16:30;101324.25;;;16.60;100.00
39265;BME280;42646;51.910;7.724;2022-10-31T11:19:13;101315.41;;;16.68;100.00
39265;BME280;42646;51.910;7.724;2022-10-31T11:21:43;101316.28;;;16.76;100.00
39265;BME280;42646;51.910;7.724;2022-10-31T11:24:20;101309.44;;;16.82;100.00
39265;BME280;42646;51.910;7.724;2022-10-31T11:26:50;101311.81;;;16.85;100.00
39265;BME280;42646;51.910;7.724;2022-10-31T11:29:21;101305.91;;;16.90;100.00
39265;BME280;42646;51.910;7.724;2022-10-31T11:31:52;101301.75;;;16.95;100.00
39265;BME280;42646;51.910;7.724;2022-10-31T11:34:29;101286.97;;;16.99;100.00
39265;BME280;42646;51.910;7.724;2022-10-31T11:37:03;101289.19;;;17.04;100.00
39265;BME280;42646;51.910;7.724;2022-10-31T11:39:40;101280.63;;;17.08;100.00
39265;BME280;42646;51.910;7.724;2022-10-31T11:42:08;101278.09;;;17.15;100.00
39265;BME280;42646;51.910;7.724;2022-10-31T11:44:36;101272.56;;;17.17;100.00
39265;BME280;42646;51.910;7.724;2022-10-31T11:47:12;101260.47;;;17.21;100.00
39265;BME280;42646;51.910;7.724;2022-10-31T11:49:44;101253.06;;;17.23;100.00
39265;BME280;42646;51.910;7.724;2022-10-31T11:52:17;101252.41;;;17.29;100.00
39265;BME280;42646;51.910;7.724;2022-10-31T11:54:47;101244.50;;;17.27;100.00
39265;BME280;42646;51.910;7.724;2022-10-31T11:57:24;101240.63;;;17.30;100.00
39265;BME280;42646;51.910;7.724;2022-10-31T11:59:53;101241.97;;;17.34;100.00
39265;BME280;42646;51.910;7.724;2022-10-31T12:02:22;101241.47;;;17.39;100.00
39265;BME280;42646;51.910;7.724;2022-10-31T12:04:58;101235.09;;;17.40;100.00
39265;BME280;42646;51.910;7.724;2022-10-31T12:07:28;101228.50;;;17.42;100.00
39265;BME280;42646;51.910;7.724;2022-10-31T12:09:55;101219.94;;;17.47;100.00
39265;BME280;42646;51.910;7.724;2022-10-31T12:12:33;101215.91;;;17.51;99.00
39265;BME280;42646;51.910;7.724;2022-10-31T12:15:25;101205.50;;;17.56;99.07
39265;BME280;42646;51.910;7.724;2022-10-31T12:18:02;101197.91;;;17.59;98.32
39265;BME280;42646;51.910;7.724;2022-10-31T12:20:41;101188.66;;;17.62;98.11
39265;BME280;42646;51.910;7.724;2022-10-31T12:23:18;101185.63;;;17.65;98.09
39265;BME280;42646;51.910;7.724;2022-10-31T12:25:54;101172.66;;;17.69;98.26
39265;BME280;42646;51.910;7.724;2022-10-31T12:28:40;101160.72;;;17.71;98.59
39265;BME280;42646;51.910;7.724;2022-10-31T12:31:25;101148.81;;;17.74;98.92
39265;BME280;42646;51.910;7.724;2022-10-31T12:34:19;101142.53;;;17.81;97.26
39265;BME280;42646;51.910;7.724;2022-10-31T12:36:59;101138.00;;;17.82;96.76
39265;BME280;42646;51.910;7.724;2022-10-31T12:39:36;101145.41;;;17.80;96.28
39265;BME280;42646;51.910;7.724;2022-10-31T12:42:17;101177.53;;;17.81;96.12
39265;BME280;42646;51.910;7.724;2022-10-31T12:45:00;101192.84;;;17.81;96.51
39265;BME280;42646;51.910;7.724;2022-10-31T12:47:47;101187.94;;;17.84;97.90
39265;BME280;42646;51.910;7.724;2022-10-31T12:50:28;101188.44;;;17.88;98.51
39265;BME280;42646;51.910;7.724;2022-10-31T12:53:15;101179.19;;;17.91;98.58
39265;BME280;42646;51.910;7.724;2022-10-31T12:55:55;101178.00;;;17.93;98.23
39265;BME280;42646;51.910;7.724;2022-10-31T12:58:30;101174.28;;;17.94;98.06
39265;BME280;42646;51.910;7.724;2022-10-31T13:01:07;101156.09;;;17.96;97.91
39265;BME280;42646;51.910;7.724;2022-10-31T13:03:44;101150.56;;;17.98;97.14
39265;BME280;42646;51.910;7.724;2022-10-31T13:06:18;101141.47;;;17.99;96.86
39265;BME280;42646;51.910;7.724;2022-10-31T13:08:51;101122.63;;;17.99;96.53
39265;BME280;42646;51.910;7.724;2022-10-31T13:11:23;101112.50;;;18.01;96.45
39265;BME280;42646;51.910;7.724;2022-10-31T13:13:58;101125.13;;;18.00;96.81
39265;BME280;42646;51.910;7.724;2022-10-31T13:16:29;101120.59;;;18.01;97.21
39265;BME280;42646;51.910;7.724;2022-10-31T13:19:02;101114.88;;;18.04;97.06
39265;BME280;42646;51.910;7.724;2022-10-31T13:21:36;101098.88;;;18.02;97.35